createdAt,value
2022-11-16T00:01:34.878Z,16.20
2022-11-16T00:04:03.548Z,16.20
2022-11-16T00:09:19.350Z,16.20
2022-11-16T00:11:46.771Z,16.20
2022-11-16T00:24:04.642Z,16.10
2022-11-16T00:33:53.212Z,16.10
2022-11-16T00:38:47.649Z,16.10
2022-11-16T00:43:42.144Z,16.10
2022-11-16T00:46:09.583Z,16.00
2022-11-16T00:48:36.599Z,16.10
2022-11-16T00:51:04.176Z,16.00
2022-11-16T00:53:31.510Z,16.00
2022-11-16T00:55:58.421Z,16.00
2022-11-16T00:58:25.632Z,16.00
2022-11-16T01:01:06.456Z,16.00
2022-11-16T01:03:34.442Z,16.00
2022-11-16T01:06:08.107Z,16.00
2022-11-16T01:08:37.208Z,16.00
2022-11-16T01:11:23.532Z,16.10
2022-11-16T01:16:19.417Z,16.00
2022-11-16T01:18:51.171Z,16.00
2022-11-16T01:21:18.713Z,16.00
2022-11-16T01:28:41.762Z,16.00
2022-11-16T01:31:10.608Z,16.00
2022-11-16T01:33:38.914Z,16.00
2022-11-16T01:36:14.704Z,16.00
2022-11-16T01:38:43.720Z,16.00
2022-11-16T01:41:23.004Z,16.00
2022-11-16T01:44:00.788Z,15.90
2022-11-16T01:46:34.050Z,16.00
2022-11-16T01:49:11.938Z,16.00
2022-11-16T01:51:42.620Z,16.00
2022-11-16T01:54:13.355Z,16.00
2022-11-16T01:56:51.219Z,16.00
2022-11-16T01:59:31.817Z,16.00
2022-11-16T02:02:00.529Z,16.00
2022-11-16T02:04:27.799Z,16.00
2022-11-16T02:07:26.443Z,16.00
2022-11-16T02:10:21.679Z,16.00
2022-11-16T02:13:11.566Z,16.00
2022-11-16T02:15:46.640Z,16.00
2022-11-16T02:18:42.347Z,16.00
2022-11-16T02:21:21.554Z,16.00
2022-11-16T02:23:51.446Z,16.00
2022-11-16T02:27:01.391Z,16.00
2022-11-16T02:29:40.048Z,16.00
2022-11-16T02:34:46.929Z,16.00
2022-11-16T02:37:17.749Z,16.00
2022-11-16T02:39:48.109Z,16.00
2022-11-16T02:42:26.069Z,15.90
2022-11-16T02:44:55.602Z,16.00
2022-11-16T02:47:26.687Z,16.00
2022-11-16T02:50:00.571Z,16.00
2022-11-16T02:52:28.949Z,16.00
2022-11-16T02:54:56.175Z,16.00
2022-11-16T02:59:55.059Z,16.00
2022-11-16T03:02:34.318Z,15.90
2022-11-16T03:05:14.335Z,16.00
2022-11-16T03:07:53.746Z,16.00
2022-11-16T03:10:41.503Z,16.00
2022-11-16T03:13:12.608Z,16.00
2022-11-16T03:15:48.306Z,15.90
2022-11-16T03:18:17.420Z,15.90
2022-11-16T03:20:46.326Z,15.90
2022-11-16T03:23:13.909Z,15.90
2022-11-16T03:25:51.177Z,15.80
2022-11-16T03:28:27.439Z,15.70
2022-11-16T03:31:11.207Z,15.80
2022-11-16T03:33:50.143Z,15.70
2022-11-16T03:36:39.987Z,15.70
2022-11-16T03:39:12.608Z,15.70
2022-11-16T03:41:45.643Z,15.60
2022-11-16T03:44:15.190Z,15.50
2022-11-16T03:46:44.318Z,15.50
2022-11-16T03:56:36.281Z,15.50
2022-11-16T03:59:03.714Z,15.50
2022-11-16T04:01:31.652Z,15.40
2022-11-16T04:03:58.932Z,15.40
2022-11-16T04:20:38.622Z,15.30
2022-11-16T04:23:33.492Z,15.20
2022-11-16T04:28:32.008Z,15.30
2022-11-16T04:31:23.143Z,15.20
2022-11-16T04:39:35.094Z,15.20
2022-11-16T04:42:15.063Z,15.20
2022-11-16T04:50:04.112Z,15.20
2022-11-16T04:52:31.699Z,15.20
2022-11-16T05:07:26.106Z,15.10
2022-11-16T05:10:00.430Z,15.10
2022-11-16T05:12:28.582Z,15.10
2022-11-16T05:22:54.653Z,15.10
2022-11-16T05:35:14.398Z,15.10
2022-11-16T05:37:42.450Z,15.00
2022-11-16T05:47:48.855Z,15.10
2022-11-16T05:50:16.646Z,15.10
2022-11-16T05:52:46.741Z,15.10
2022-11-16T05:55:13.530Z,15.10
2022-11-16T06:10:10.083Z,15.10
2022-11-16T06:15:05.825Z,15.10
2022-11-16T06:20:01.491Z,15.10
2022-11-16T06:24:55.725Z,15.10
2022-11-16T06:37:13.229Z,15.00
2022-11-16T06:39:40.055Z,14.90
2022-11-16T06:42:07.965Z,14.90
2022-11-16T06:52:05.811Z,14.90
2022-11-16T06:54:32.702Z,14.80
2022-11-16T07:01:54.715Z,14.80
2022-11-16T07:04:21.653Z,14.80
2022-11-16T07:21:40.718Z,14.80
2022-11-16T07:34:48.179Z,14.80
2022-11-16T07:39:45.701Z,14.80
2022-11-16T07:55:01.909Z,14.80
2022-11-16T08:00:01.111Z,14.80
2022-11-16T08:12:24.501Z,14.70
2022-11-16T08:22:16.475Z,14.70
2022-11-16T08:34:40.384Z,14.80
2022-11-16T08:44:42.482Z,14.80
2022-11-16T09:07:10.209Z,15.00
2022-11-16T09:09:37.533Z,15.00
2022-11-16T09:19:26.363Z,15.10
2022-11-16T09:21:53.135Z,15.10
2022-11-16T09:26:47.347Z,15.10
2022-11-16T09:29:15.497Z,15.10
2022-11-16T09:42:00.613Z,15.20
2022-11-16T09:44:40.445Z,15.20
2022-11-16T09:47:21.908Z,15.30
2022-11-16T09:49:56.792Z,15.30
2022-11-16T09:52:36.242Z,15.30
2022-11-16T09:55:18.468Z,15.30
2022-11-16T09:57:46.224Z,15.30
2022-11-16T10:00:18.090Z,15.30
2022-11-16T10:03:00.726Z,15.30
2022-11-16T10:05:43.546Z,15.30
2022-11-16T10:10:45.058Z,15.40
2022-11-16T10:16:03.690Z,15.40
2022-11-16T10:18:39.890Z,15.40
2022-11-16T10:23:56.128Z,15.40
2022-11-16T10:26:30.365Z,15.40
2022-11-16T10:29:08.544Z,15.50
2022-11-16T10:31:49.119Z,15.50
2022-11-16T10:34:21.841Z,15.50
2022-11-16T10:39:19.338Z,15.40
2022-11-16T10:41:50.761Z,15.50
2022-11-16T10:44:29.145Z,15.50
2022-11-16T10:47:09.926Z,15.50
2022-11-16T10:49:59.656Z,15.50
2022-11-16T10:59:55.495Z,15.60
2022-11-16T11:02:31.350Z,15.60
2022-11-16T11:05:15.600Z,15.60
2022-11-16T11:07:46.657Z,15.60
2022-11-16T11:10:35.645Z,15.60
2022-11-16T11:13:11.328Z,15.70
2022-11-16T11:15:40.471Z,15.70
2022-11-16T11:18:23.818Z,15.70
2022-11-16T11:21:06.690Z,15.80
2022-11-16T11:24:37.405Z,15.80
2022-11-16T11:27:00.800Z,15.80
2022-11-16T11:29:34.966Z,15.90
2022-11-16T11:32:07.717Z,15.90
2022-11-16T11:34:47.532Z,15.90
2022-11-16T11:37:18.208Z,15.90
2022-11-16T11:42:15.410Z,15.90
2022-11-16T11:45:11.602Z,16.00
2022-11-16T11:48:00.163Z,16.00
2022-11-16T11:50:47.937Z,16.00
2022-11-16T11:53:46.892Z,16.00
2022-11-16T11:56:15.298Z,16.10
2022-11-16T11:58:43.448Z,16.10
2022-11-16T12:01:19.555Z,16.20
2022-11-16T12:04:08.436Z,16.20
2022-11-16T12:06:44.082Z,16.20
2022-11-16T12:09:20.411Z,16.30
2022-11-16T12:11:59.176Z,16.30
2022-11-16T12:15:00.719Z,16.30
2022-11-16T12:17:33.158Z,16.30
2022-11-16T12:20:19.202Z,16.30
2022-11-16T12:23:10.016Z,16.40
2022-11-16T12:25:51.944Z,16.40
2022-11-16T12:31:20.547Z,16.40
2022-11-16T12:34:35.404Z,16.50
2022-11-16T12:37:20.910Z,16.60
2022-11-16T12:39:53.460Z,16.60
2022-11-16T12:42:38.545Z,16.70
2022-11-16T12:45:26.329Z,16.70
2022-11-16T12:48:33.499Z,16.70
2022-11-16T12:51:31.752Z,16.80
2022-11-16T12:54:15.656Z,16.90
2022-11-16T12:57:08.035Z,16.90
2022-11-16T13:00:01.390Z,16.90
2022-11-16T13:02:41.091Z,17.00
2022-11-16T13:05:16.891Z,17.00
2022-11-16T13:10:30.297Z,17.10
2022-11-16T13:13:29.731Z,17.20
2022-11-16T13:18:18.482Z,17.20
2022-11-16T13:20:55.500Z,17.30
2022-11-16T13:23:31.641Z,17.30
2022-11-16T13:26:25.322Z,17.30
2022-11-16T13:31:35.317Z,17.30
2022-11-16T13:34:07.679Z,17.10
2022-11-16T13:36:37.320Z,17.20
2022-11-16T13:39:06.080Z,17.20
2022-11-16T13:41:36.021Z,17.20
2022-11-16T13:44:24.887Z,17.20
2022-11-16T13:46:57.420Z,17.20
2022-11-16T13:49:52.278Z,17.20
2022-11-16T13:55:12.396Z,17.20
2022-11-16T13:57:41.862Z,17.20
2022-11-16T14:00:11.584Z,17.30
2022-11-16T14:02:41.032Z,17.20
2022-11-16T14:05:15.256Z,17.20
2022-11-16T14:07:50.613Z,17.20
2022-11-16T14:10:52.757Z,17.30
2022-11-16T14:13:40.574Z,17.20
2022-11-16T14:16:22.760Z,17.20
2022-11-16T14:18:50.442Z,17.20
2022-11-16T14:21:20.189Z,17.20
2022-11-16T14:24:08.286Z,17.20
2022-11-16T14:27:03.428Z,17.20
2022-11-16T14:29:56.607Z,17.20
2022-11-16T14:32:31.372Z,17.20
2022-11-16T14:35:00.524Z,17.20
2022-11-16T14:40:21.435Z,17.20
2022-11-16T14:43:15.810Z,17.20
2022-11-16T14:45:48.682Z,17.20
2022-11-16T14:48:21.913Z,17.10
2022-11-16T14:51:13.988Z,17.10
2022-11-16T14:53:47.675Z,17.10
2022-11-16T14:56:17.402Z,17.10
2022-11-16T14:58:54.791Z,17.10
2022-11-16T15:01:26.234Z,17.10
2022-11-16T15:03:55.097Z,17.10
2022-11-16T15:06:22.722Z,17.00
2022-11-16T15:08:54.583Z,17.00
2022-11-16T15:11:54.339Z,17.00
2022-11-16T15:14:31.977Z,17.10
2022-11-16T15:17:00.102Z,17.00
2022-11-16T15:19:30.439Z,17.00
2022-11-16T15:22:02.370Z,17.00
2022-11-16T15:24:34.346Z,17.00
2022-11-16T15:27:07.237Z,17.00
2022-11-16T15:32:01.331Z,16.90
2022-11-16T15:39:27.453Z,16.80
2022-11-16T15:42:03.267Z,16.80
2022-11-16T15:44:31.890Z,16.80
2022-11-16T15:46:59.410Z,16.80
2022-11-16T15:49:40.688Z,16.80
2022-11-16T15:52:07.862Z,16.70
2022-11-16T15:54:54.353Z,16.70
2022-11-16T15:57:22.337Z,16.70
2022-11-16T15:59:54.476Z,16.60
2022-11-16T16:02:24.105Z,16.60
2022-11-16T16:07:38.587Z,16.60
2022-11-16T16:10:34.851Z,16.60
2022-11-16T16:13:02.654Z,16.50
2022-11-16T16:15:36.648Z,16.50
2022-11-16T16:18:11.441Z,16.20
2022-11-16T16:23:15.212Z,16.50
2022-11-16T16:25:46.064Z,16.50
2022-11-16T16:28:17.176Z,16.50
2022-11-16T16:30:44.230Z,16.50
2022-11-16T16:33:19.486Z,16.50
2022-11-16T16:38:17.345Z,16.40
2022-11-16T16:43:11.314Z,16.40
2022-11-16T16:45:41.848Z,16.40
2022-11-16T16:50:36.909Z,16.40
2022-11-16T17:00:31.599Z,16.40
2022-11-16T17:05:28.813Z,16.40
2022-11-16T17:07:56.222Z,16.40
2022-11-16T17:10:23.748Z,16.40
2022-11-16T17:12:53.755Z,16.40
2022-11-16T17:15:20.576Z,16.40
2022-11-16T17:20:16.306Z,16.40
2022-11-16T17:25:10.787Z,16.40
2022-11-16T17:30:05.469Z,16.40
2022-11-16T17:39:53.790Z,16.30
2022-11-16T17:44:47.879Z,16.30
2022-11-16T17:47:14.706Z,16.20
2022-11-16T18:04:25.397Z,16.10
2022-11-16T18:09:19.544Z,16.10
2022-11-16T18:16:43.215Z,16.20
2022-11-16T18:19:16.196Z,16.20
2022-11-16T18:24:11.652Z,16.20
2022-11-16T18:26:40.557Z,16.20
2022-11-16T18:29:12.106Z,16.20
2022-11-16T18:36:33.737Z,16.20
2022-11-16T18:41:29.223Z,16.30
2022-11-16T18:44:00.782Z,16.30
2022-11-16T18:46:32.617Z,16.30
2022-11-16T18:51:27.733Z,16.30
2022-11-16T18:56:23.081Z,16.20
2022-11-16T18:58:51.840Z,16.20
2022-11-16T19:01:24.162Z,16.20
2022-11-16T19:03:52.217Z,16.20
2022-11-16T19:06:19.202Z,16.20
2022-11-16T19:08:55.022Z,16.20
2022-11-16T19:11:23.805Z,16.20
2022-11-16T19:14:07.435Z,16.20
2022-11-16T19:26:27.031Z,16.30
2022-11-16T19:28:54.473Z,16.30
2022-11-16T19:31:27.120Z,16.30
2022-11-16T19:34:01.504Z,16.30
2022-11-16T19:36:29.966Z,16.30
2022-11-16T19:41:25.156Z,16.30
2022-11-16T19:43:56.925Z,16.30
2022-11-16T19:46:26.975Z,16.30
2022-11-16T19:48:55.199Z,16.30
2022-11-16T19:51:28.094Z,16.30
2022-11-16T19:53:55.322Z,16.30
2022-11-16T19:56:23.636Z,16.30
2022-11-16T19:58:50.858Z,16.30
2022-11-16T20:01:20.455Z,16.30
2022-11-16T20:03:48.620Z,16.30
2022-11-16T20:06:19.743Z,16.30
2022-11-16T20:08:50.518Z,16.30
2022-11-16T20:11:22.770Z,16.30
2022-11-16T20:13:50.902Z,16.30
2022-11-16T20:16:20.444Z,16.30
2022-11-16T20:18:47.979Z,16.30
2022-11-16T20:21:35.323Z,16.30
2022-11-16T20:24:06.853Z,16.30
2022-11-16T20:26:35.408Z,16.30
2022-11-16T20:31:31.671Z,16.30
2022-11-16T20:34:04.466Z,16.30
2022-11-16T20:36:32.928Z,16.30
2022-11-16T20:39:01.031Z,16.30
2022-11-16T20:41:32.623Z,16.30
2022-11-16T20:44:01.865Z,16.30
2022-11-16T20:46:31.322Z,16.30
2022-11-16T20:51:28.720Z,16.30
2022-11-16T20:56:22.753Z,16.30
2022-11-16T20:58:50.098Z,16.30
2022-11-16T21:01:19.493Z,16.30
2022-11-16T21:06:14.447Z,16.30
2022-11-16T21:08:41.996Z,16.30
2022-11-16T21:11:17.702Z,16.30
2022-11-16T21:14:05.007Z,16.30
2022-11-16T21:16:33.410Z,16.30
2022-11-16T21:26:29.967Z,16.30
2022-11-16T21:28:57.380Z,16.20
2022-11-16T21:31:27.126Z,16.30
2022-11-16T21:33:54.730Z,16.20
2022-11-16T21:36:26.625Z,16.20
2022-11-16T21:41:23.234Z,16.20
2022-11-16T21:43:50.341Z,16.10
2022-11-16T21:46:25.651Z,16.10
2022-11-16T21:48:55.345Z,16.10
2022-11-16T21:51:25.161Z,16.10
2022-11-16T21:56:22.136Z,16.10
2022-11-16T21:58:52.825Z,16.00
2022-11-16T22:01:20.735Z,16.00
2022-11-16T22:12:05.229Z,16.00
2022-11-16T22:21:53.985Z,16.00
2022-11-16T22:41:32.192Z,16.00
2022-11-16T22:46:26.327Z,16.00
2022-11-16T22:51:25.618Z,16.00
2022-11-16T22:53:54.105Z,16.00
2022-11-16T22:56:21.372Z,16.00
2022-11-16T23:01:15.609Z,16.00
2022-11-16T23:03:42.794Z,16.00
2022-11-16T23:11:26.905Z,16.00
2022-11-16T23:14:13.143Z,16.00
2022-11-16T23:16:40.729Z,16.00
2022-11-16T23:19:31.198Z,16.00
2022-11-16T23:22:16.653Z,16.00
2022-11-16T23:25:02.622Z,16.00
2022-11-16T23:27:41.119Z,16.00
2022-11-16T23:30:12.427Z,16.00
2022-11-16T23:35:08.438Z,16.00
2022-11-16T23:40:02.963Z,16.00
2022-11-16T23:50:10.851Z,16.00
2022-11-16T23:55:05.483Z,16.00
2022-11-16T23:57:32.265Z,16.00
